Date,TemperatureHighF,TemperatureAvgF,TemperatureLowF,DewpointHighF,DewpointAvgF,DewpointLowF,HumidityHigh,HumidityAvg,HumidityLow,PressureMaxIn,PressureMinIn,WindSpeedMaxMPH,WindSpeedAvgMPH,GustSpeedMaxMPH,PrecipitationSumIn
2013-3-1,56,35,17,30,18,13,87,57,24,0.00,40.00,6,3,13,0.00
2013-3-2,65,41,20,39,20,14,89,54,15,0.00,40.00,5,3,12,0.00
2013-3-3,58,45,23,29,24,20,88,46,26,0.00,40.00,9,5,22,0.00
2013-3-4,55,42,25,30,23,19,83,48,31,0.00,40.00,5,3,12,0.00
2013-3-5,59,39,20,30,20,16,90,54,21,0.00,40.00,5,3,14,0.00
2013-3-6,59,44,23,32,20,10,89,44,16,0.00,40.00,8,4,22,0.00
2013-3-7,58,44,21,30,16,12,89,39,16,0.00,40.00,8,4,21,0.00
2013-3-8,42,34,25,35,28,19,93,80,53,0.00,40.00,6,4,16,0.24
2013-3-9,39,29,15,32,26,12,92,88,76,0.00,40.00,5,4,13,0.29
2013-3-10,48,35,10,29,20,6,90,59,29,0.00,40.00,5,3,10,0.06
2013-3-11,58,36,17,33,19,14,90,59,19,0.00,40.00,5,3,10,0.00
2013-3-12,60,40,22,31,23,20,91,58,25,0.00,40.00,5,3,15,0.01
2013-3-13,64,45,25,33,24,19,90,54,19,0.00,40.00,6,4,13,0.01
2013-3-14,70,48,27,34,21,16,85,45,14,0.00,40.00,6,4,13,0.00
2013-3-15,71,50,27,42,23,14,85,46,11,0.00,40.00,6,3,14,0.00
2013-3-16,68,51,27,39,25,18,87,42,18,0.00,40.00,4,3,15,0.00
2013-3-17,63,49,26,33,10,-1,85,29,8,0.00,40.00,7,4,15,0.00
2013-3-18,62,47,25,25,9,2,69,27,10,0.00,40.00,5,3,15,0.00
2013-3-19,59,46,29,29,18,12,69,38,17,0.00,40.00,6,3,14,0.00
2013-3-20,60,44,28,29,23,20,79,48,23,0.00,40.00,7,4,19,0.00
2013-3-21,62,46,25,35,20,9,89,43,15,0.00,40.00,6,3,16,0.00
2013-3-22,59,41,22,29,5,-19,78,36,4,0.00,40.00,8,4,20,0.00
2013-3-23,45,33,19,6,-2,-8,53,25,11,0.00,40.00,5,4,13,0.00
2013-3-24,53,32,12,17,2,-6,73,37,9,0.00,40.00,6,3,16,0.00
2013-3-25,61,38,18,17,11,7,69,40,15,0.00,40.00,6,3,11,0.00
2013-3-26,62,43,25,30,15,9,70,39,15,0.00,40.00,8,4,20,0.00
2013-3-27,63,43,21,29,14,11,77,42,13,0.00,40.00,7,4,16,0.00
2013-3-28,63,57,30,25,22,18,64,27,21,0.00,40.00,7,5,19,0.00
2013-3-29,67,47,25,33,24,20,84,47,18,0.00,40.00,5,3,14,0.00
2013-3-30,64,46,27,37,24,-100,83,50,22,0.00,40.00,6,3,15,0.00
2013-3-31,65,51,25,38,24,19,90,41,20,0.00,40.00,7,4,17,0.00